Time;durP1;ratioP1;P1;durP2;ratioP2;P2;SDS_P1;SDS_P2;PMS_P1;PMS_P2;Temp;Humidity;BMP_temperature;BMP_pressure;BME280_temperature;BME280_humidity;BME280_pressure;Samples;Min_cycle;Max_cycle;Signal;HPM_P1;HPM_P2
2021/06/10 00:00:19;;;;;;;1.27;0.80;;;18.50;99.40;;;;;;4952233;28;20208;-63
2021/06/10 00:02:46;;;;;;;1.20;1.20;;;18.40;99.60;;;;;;4971750;28;20203;-64
2021/06/10 00:05:14;;;;;;;1.10;1.10;;;18.40;99.70;;;;;;4979252;28;20230;-63
2021/06/10 00:07:41;;;;;;;0.90;0.90;;;18.50;99.90;;;;;;4983898;28;20227;-66
2021/06/10 00:10:10;;;;;;;1.67;0.90;;;18.40;99.90;;;;;;4971197;28;20204;-64
2021/06/10 00:12:36;;;;;;;0.95;0.95;;;18.40;99.90;;;;;;4977838;28;20760;-63
2021/06/10 00:15:04;;;;;;;1.10;1.08;;;18.40;99.90;;;;;;4973070;28;20204;-64
2021/06/10 00:17:32;;;;;;;1.60;1.50;;;18.40;99.90;;;;;;4974125;28;20206;-64
2021/06/10 00:19:59;;;;;;;1.40;1.30;;;18.40;99.90;;;;;;4978946;28;20599;-63
2021/06/10 00:22:26;;;;;;;0.90;0.90;;;18.30;99.90;;;;;;4960140;28;20200;-63
2021/06/10 00:24:52;;;;;;;1.20;1.15;;;18.30;99.90;;;;;;4983653;28;20662;-63
2021/06/10 00:27:21;;;;;;;1.00;1.00;;;18.40;99.90;;;;;;4969998;28;20577;-63
2021/06/10 00:29:47;;;;;;;1.02;1.02;;;18.20;99.90;;;;;;4969670;28;20369;-64
2021/06/10 00:32:14;;;;;;;1.40;1.30;;;18.20;99.90;;;;;;4973175;28;20200;-64
2021/06/10 00:34:43;;;;;;;1.27;1.17;;;18.20;99.90;;;;;;4955922;28;20301;-64
2021/06/10 00:37:10;;;;;;;1.30;1.20;;;18.20;99.90;;;;;;4968725;28;20346;-65
2021/06/10 00:39:37;;;;;;;1.33;1.23;;;18.20;99.90;;;;;;4967122;28;20235;-65
2021/06/10 00:42:04;;;;;;;1.63;1.52;;;18.20;99.90;;;;;;4969932;28;20196;-63
2021/06/10 00:44:31;;;;;;;2.25;1.30;;;18.10;99.90;;;;;;4985369;28;20215;-63
2021/06/10 00:46:58;;;;;;;1.00;1.00;;;18.10;99.90;;;;;;4969612;28;20220;-64
2021/06/10 00:49:24;;;;;;;1.10;1.05;;;18.10;99.90;;;;;;4975934;28;20594;-64
2021/06/10 00:51:52;;;;;;;1.02;0.93;;;18.10;99.90;;;;;;4989611;28;20209;-65
2021/06/10 00:54:19;;;;;;;1.30;1.20;;;18.10;99.90;;;;;;4970472;28;20283;-63
2021/06/10 00:56:46;;;;;;;1.43;1.33;;;18.10;99.90;;;;;;4970390;28;20319;-64
2021/06/10 00:59:13;;;;;;;1.83;1.40;;;18.10;99.90;;;;;;4968949;28;20562;-64
2021/06/10 01:01:39;;;;;;;1.40;1.30;;;18.10;99.90;;;;;;4951616;28;20218;-64
2021/06/10 01:04:06;;;;;;;1.20;1.10;;;18.00;99.90;;;;;;4975554;28;20207;-63
2021/06/10 01:06:39;;;;;;;2.55;1.13;;;18.00;99.90;;;;;;4985815;28;20226;-64
2021/06/10 01:09:10;;;;;;;1.10;1.10;;;18.00;99.90;;;;;;4982449;28;20570;-65
2021/06/10 01:11:42;;;;;;;1.40;1.20;;;18.00;99.90;;;;;;4967218;28;20250;-63
2021/06/10 01:14:16;;;;;;;1.40;1.20;;;17.90;99.90;;;;;;4969791;28;20200;-64
2021/06/10 01:16:46;;;;;;;1.25;1.10;;;17.90;99.90;;;;;;4965456;28;20756;-64
2021/06/10 01:19:18;;;;;;;1.33;1.20;;;17.90;99.90;;;;;;4979242;28;20204;-64
2021/06/10 01:21:45;;;;;;;1.42;1.40;;;17.90;99.90;;;;;;4951223;28;20205;-65
2021/06/10 01:24:33;;;;;;;1.30;1.20;;;17.90;99.90;;;;;;4973951;28;20729;-63
2021/06/10 01:27:08;;;;;;;2.10;1.10;;;17.90;99.90;;;;;;4968548;28;20305;-63
2021/06/10 01:29:38;;;;;;;1.30;1.20;;;17.90;99.90;;;;;;4968394;28;20200;-64
2021/06/10 01:32:07;;;;;;;1.33;1.10;;;17.90;99.90;;;;;;4968277;28;20654;-64
2021/06/10 01:34:34;;;;;;;1.23;1.13;;;17.90;99.90;;;;;;4972701;28;20296;-64
2021/06/10 01:37:02;;;;;;;1.25;1.25;;;17.90;99.90;;;;;;4988983;28;20276;-64
2021/06/10 01:39:29;;;;;;;1.35;1.25;;;17.80;99.90;;;;;;4967262;28;20211;-63
2021/06/10 01:41:57;;;;;;;1.58;1.48;;;17.80;99.90;;;;;;4970005;28;20372;-64
2021/06/10 01:44:26;;;;;;;1.40;1.30;;;17.80;99.90;;;;;;4968749;28;20233;-64
2021/06/10 01:46:54;;;;;;;1.67;1.30;;;17.80;99.90;;;;;;4968781;28;20555;-63
2021/06/10 01:49:22;;;;;;;2.55;1.58;;;17.80;99.90;;;;;;4968960;28;20575;-63
2021/06/10 01:51:49;;;;;;;1.25;1.25;;;17.80;99.90;;;;;;4980556;28;20209;-63
2021/06/10 01:54:17;;;;;;;1.47;1.37;;;17.80;99.90;;;;;;4988278;28;20311;-63
2021/06/10 01:56:45;;;;;;;1.40;1.30;;;17.70;99.90;;;;;;4971967;28;20673;-64
2021/06/10 01:59:13;;;;;;;2.17;1.97;;;17.70;99.90;;;;;;4987563;28;20282;-64
2021/06/10 02:01:41;;;;;;;1.67;1.58;;;17.70;99.90;;;;;;4975856;28;20218;-62
2021/06/10 02:04:11;;;;;;;1.30;1.30;;;17.60;99.90;;;;;;4962116;28;20211;-63
2021/06/10 02:06:41;;;;;;;1.77;1.55;;;17.60;99.90;;;;;;4976751;28;20275;-63
2021/06/10 02:09:08;;;;;;;1.60;1.48;;;17.60;99.90;;;;;;4975161;28;20558;-64
2021/06/10 02:11:35;;;;;;;1.93;1.37;;;17.60;99.90;;;;;;4981249;28;20691;-63
2021/06/10 02:14:02;;;;;;;1.20;1.10;;;17.60;99.90;;;;;;4969401;28;20300;-63
2021/06/10 02:16:29;;;;;;;1.60;1.50;;;17.60;99.90;;;;;;4981308;28;20700;-64
2021/06/10 02:18:56;;;;;;;3.03;1.33;;;17.60;99.90;;;;;;4959564;28;20206;-65
2021/06/10 02:21:24;;;;;;;1.33;1.23;;;17.60;99.90;;;;;;4954737;28;20206;-66
2021/06/10 02:23:51;;;;;;;1.05;1.05;;;17.60;99.90;;;;;;4976006;28;20204;-63
2021/06/10 02:26:18;;;;;;;1.05;1.05;;;17.60;99.90;;;;;;4989789;28;20228;-62
2021/06/10 02:28:45;;;;;;;3.40;1.70;;;17.60;99.90;;;;;;4954607;28;20346;-63
2021/06/10 02:31:12;;;;;;;2.67;1.63;;;17.60;99.90;;;;;;4973352;28;20590;-63
2021/06/10 02:33:41;;;;;;;1.60;1.50;;;17.60;99.90;;;;;;4990643;28;20258;-63
2021/06/10 02:36:09;;;;;;;2.73;1.63;;;17.60;99.90;;;;;;4972180;28;20209;-64
2021/06/10 02:38:40;;;;;;;1.10;1.10;;;17.50;99.90;;;;;;4954765;28;20211;-63
2021/06/10 02:41:08;;;;;;;1.50;1.30;;;17.60;99.90;;;;;;4971807;28;20200;-64
2021/06/10 02:43:35;;;;;;;1.47;1.30;;;17.50;99.90;;;;;;4971949;28;20639;-64
2021/06/10 02:46:02;;;;;;;1.40;1.30;;;17.50;99.90;;;;;;4975407;28;20210;-64
2021/06/10 02:48:29;;;;;;;1.27;1.27;;;17.60;99.90;;;;;;4971115;28;20197;-64
2021/06/10 02:50:57;;;;;;;1.40;1.30;;;17.50;99.90;;;;;;4972348;28;20202;-64
2021/06/10 02:53:25;;;;;;;1.40;1.30;;;17.60;99.90;;;;;;4972200;28;20199;-65
2021/06/10 02:55:54;;;;;;;1.40;1.30;;;17.50;99.90;;;;;;4972653;28;20204;-64
2021/06/10 02:58:23;;;;;;;1.30;1.30;;;17.50;99.90;;;;;;4984253;28;20613;-64
2021/06/10 03:00:50;;;;;;;1.10;1.10;;;17.50;99.90;;;;;;4990364;28;20283;-64
2021/06/10 03:03:18;;;;;;;3.13;1.10;;;17.50;99.90;;;;;;4981996;28;21082;-64
2021/06/10 03:05:45;;;;;;;1.40;1.30;;;17.60;99.90;;;;;;4984841;28;20200;-64
2021/06/10 03:08:13;;;;;;;1.40;1.33;;;17.50;99.90;;;;;;4972171;28;20274;-64
2021/06/10 03:10:40;;;;;;;1.23;1.20;;;17.50;99.90;;;;;;4971819;28;20624;-65
2021/06/10 03:13:10;;;;;;;1.40;1.30;;;17.60;99.90;;;;;;4981134;28;20594;-65
2021/06/10 03:15:38;;;;;;;1.30;1.30;;;17.60;99.90;;;;;;4959862;28;20303;-64
2021/06/10 03:18:06;;;;;;;1.50;1.40;;;17.50;99.90;;;;;;4984174;28;20197;-64
2021/06/10 03:20:33;;;;;;;1.52;1.42;;;17.60;99.90;;;;;;4980749;28;20217;-65
2021/06/10 03:23:00;;;;;;;1.37;1.27;;;17.60;99.90;;;;;;4971755;28;20203;-64
2021/06/10 03:25:28;;;;;;;1.80;1.70;;;17.60;99.90;;;;;;4954798;28;20299;-65
2021/06/10 03:27:54;;;;;;;1.77;1.67;;;17.60;99.90;;;;;;4955395;28;20316;-64
2021/06/10 03:30:23;;;;;;;1.60;1.50;;;17.60;99.90;;;;;;4972714;28;20753;-64
2021/06/10 03:32:52;;;;;;;1.15;1.02;;;17.60;99.90;;;;;;4977579;28;20210;-64
2021/06/10 03:35:21;;;;;;;1.30;1.20;;;17.60;99.90;;;;;;4953521;28;20238;-64
2021/06/10 03:37:48;;;;;;;1.30;1.20;;;17.70;99.90;;;;;;4983873;28;20235;-64
2021/06/10 03:40:17;;;;;;;1.20;1.10;;;17.70;99.90;;;;;;4954005;28;20319;-63
2021/06/10 03:42:43;;;;;;;1.00;1.00;;;17.70;99.90;;;;;;4973598;28;20198;-63
2021/06/10 03:45:13;;;;;;;1.50;1.40;;;17.80;99.90;;;;;;4983716;28;20198;-64
2021/06/10 03:47:44;;;;;;;1.15;1.05;;;17.70;99.90;;;;;;4969853;28;20226;-63
2021/06/10 03:50:11;;;;;;;1.00;1.00;;;17.80;99.90;;;;;;4971185;28;20610;-63
2021/06/10 03:52:38;;;;;;;1.17;1.17;;;17.80;99.90;;;;;;4988702;28;20249;-63
2021/06/10 03:55:07;;;;;;;1.02;1.02;;;17.80;99.90;;;;;;4979398;28;20240;-64
2021/06/10 03:57:35;;;;;;;1.15;1.10;;;17.90;99.90;;;;;;4970463;28;20200;-64
2021/06/10 04:00:03;;;;;;;1.10;1.10;;;17.90;99.90;;;;;;4970272;28;20195;-64
2021/06/10 04:02:31;;;;;;;1.33;1.23;;;17.90;99.90;;;;;;4969444;28;20204;-64
2021/06/10 04:04:59;;;;;;;1.30;1.20;;;17.90;99.90;;;;;;4984211;28;20199;-64
2021/06/10 04:07:27;;;;;;;0.88;0.88;;;18.00;99.90;;;;;;4958551;28;20310;-64
2021/06/10 04:09:56;;;;;;;1.02;0.98;;;18.00;99.90;;;;;;4984494;28;20638;-63
2021/06/10 04:12:23;;;;;;;0.98;0.98;;;18.00;99.90;;;;;;4967923;28;20669;-64
2021/06/10 04:14:50;;;;;;;3.90;1.20;;;18.10;99.90;;;;;;4970464;28;20282;-63
2021/06/10 04:17:17;;;;;;;0.98;0.98;;;18.10;99.90;;;;;;4960242;28;20204;-64
2021/06/10 04:19:43;;;;;;;1.20;1.10;;;18.10;99.90;;;;;;4953424;28;20679;-64
2021/06/10 04:22:11;;;;;;;1.20;1.20;;;18.20;99.90;;;;;;4976212;28;20205;-64
2021/06/10 04:24:37;;;;;;;1.17;1.07;;;18.20;99.90;;;;;;4970694;28;20263;-65
2021/06/10 04:27:05;;;;;;;1.03;1.00;;;18.20;99.90;;;;;;4975994;28;20229;-63
2021/06/10 04:29:32;;;;;;;1.25;1.15;;;18.30;99.90;;;;;;4971986;28;20260;-64
2021/06/10 04:31:59;;;;;;;1.63;1.30;;;18.30;99.90;;;;;;4987994;28;20233;-64
2021/06/10 04:34:25;;;;;;;1.10;1.10;;;18.40;99.90;;;;;;4981557;28;20743;-63
2021/06/10 04:36:52;;;;;;;1.30;1.15;;;18.50;99.90;;;;;;4971991;28;20679;-63
2021/06/10 04:39:22;;;;;;;0.98;0.98;;;18.50;99.90;;;;;;4971199;28;20208;-63
2021/06/10 04:41:51;;;;;;;0.85;0.82;;;18.60;99.90;;;;;;4989075;28;20211;-64
2021/06/10 04:44:17;;;;;;;1.70;1.42;;;18.70;99.90;;;;;;4970670;28;20425;-63
2021/06/10 04:46:44;;;;;;;1.98;1.30;;;18.70;99.90;;;;;;4976611;28;20219;-63
2021/06/10 04:49:12;;;;;;;1.17;1.17;;;18.80;99.90;;;;;;4989180;28;20204;-63
2021/06/10 04:51:38;;;;;;;1.63;1.08;;;18.80;99.90;;;;;;4971917;28;20207;-64
2021/06/10 04:54:05;;;;;;;1.40;0.90;;;18.80;99.90;;;;;;4964371;28;20314;-64
2021/06/10 04:56:33;;;;;;;1.17;1.10;;;18.90;99.90;;;;;;4989761;28;20210;-63
2021/06/10 04:59:00;;;;;;;0.90;0.90;;;19.00;99.90;;;;;;4989003;28;20208;-63
2021/06/10 05:01:27;;;;;;;0.90;0.90;;;19.10;99.90;;;;;;4988561;28;20199;-63
2021/06/10 05:03:53;;;;;;;1.55;0.95;;;19.20;99.90;;;;;;4988418;28;20202;-64
2021/06/10 05:06:20;;;;;;;1.00;1.00;;;19.30;99.90;;;;;;4989492;28;20222;-63
2021/06/10 05:08:46;;;;;;;0.90;0.90;;;19.30;99.90;;;;;;4989125;28;20230;-63
2021/06/10 05:11:13;;;;;;;0.95;0.95;;;19.40;99.90;;;;;;4988751;28;20235;-64
2021/06/10 05:13:41;;;;;;;2.67;1.27;;;19.50;99.90;;;;;;4976810;28;20283;-63
2021/06/10 05:16:07;;;;;;;1.20;1.20;;;19.60;99.90;;;;;;4988936;28;20199;-63
2021/06/10 05:18:34;;;;;;;1.50;1.40;;;19.60;99.90;;;;;;4987995;28;20220;-64
2021/06/10 05:21:00;;;;;;;2.05;1.10;;;19.70;99.90;;;;;;4981290;28;20213;-64
2021/06/10 05:23:27;;;;;;;1.08;1.08;;;19.80;99.90;;;;;;4951997;28;20321;-64
2021/06/10 05:25:53;;;;;;;1.02;0.95;;;19.90;99.90;;;;;;4978790;28;20630;-63
2021/06/10 05:28:20;;;;;;;0.90;0.90;;;19.90;99.90;;;;;;4974914;28;20322;-64
2021/06/10 05:30:48;;;;;;;1.27;0.90;;;20.00;99.90;;;;;;4976064;28;20197;-64
2021/06/10 05:33:14;;;;;;;1.35;0.98;;;20.20;99.90;;;;;;4967764;28;20208;-63
2021/06/10 05:35:41;;;;;;;1.10;1.10;;;20.30;99.90;;;;;;4960486;28;20666;-64
2021/06/10 05:38:07;;;;;;;0.95;0.95;;;20.40;99.90;;;;;;4961445;28;20256;-63
2021/06/10 05:40:34;;;;;;;1.33;1.20;;;20.50;99.90;;;;;;4967476;28;20654;-63
2021/06/10 05:43:02;;;;;;;1.65;1.10;;;20.50;99.90;;;;;;4959617;28;20197;-64
2021/06/10 05:45:28;;;;;;;1.15;0.95;;;20.70;99.90;;;;;;4968082;28;20197;-63
2021/06/10 05:47:56;;;;;;;2.05;1.00;;;20.80;99.90;;;;;;4968038;28;20771;-62
2021/06/10 05:50:25;;;;;;;1.40;1.30;;;20.90;99.90;;;;;;4969814;28;20567;-63
2021/06/10 05:52:52;;;;;;;0.88;0.88;;;21.00;99.90;;;;;;4971499;28;20216;-63
2021/06/10 05:55:19;;;;;;;1.00;1.00;;;21.10;99.90;;;;;;4955677;28;20208;-64
2021/06/10 05:57:45;;;;;;;0.95;0.95;;;21.20;99.90;;;;;;4973341;28;20280;-64
2021/06/10 06:00:12;;;;;;;2.47;1.00;;;21.40;99.90;;;;;;4982484;28;20196;-64
2021/06/10 06:02:40;;;;;;;0.90;0.90;;;21.50;99.90;;;;;;4974433;28;20208;-64
2021/06/10 06:05:09;;;;;;;1.48;1.25;;;21.70;99.90;;;;;;4972905;28;20223;-64
2021/06/10 06:07:36;;;;;;;4.22;1.10;;;22.20;99.90;;;;;;4985785;28;20274;-63
2021/06/10 06:10:03;;;;;;;1.02;1.02;;;23.00;99.60;;;;;;4955935;28;20311;-64
2021/06/10 06:12:30;;;;;;;1.83;0.90;;;23.60;97.90;;;;;;4969370;28;20210;-65
2021/06/10 06:14:57;;;;;;;1.00;1.00;;;24.70;96.50;;;;;;4974569;28;20277;-64
2021/06/10 06:17:24;;;;;;;1.02;1.02;;;26.50;92.60;;;;;;4986459;28;20201;-63
2021/06/10 06:19:50;;;;;;;1.00;1.00;;;28.20;86.50;;;;;;4973262;28;20212;-65
2021/06/10 06:22:18;;;;;;;1.75;0.80;;;29.50;79.40;;;;;;4979408;28;20223;-65
2021/06/10 06:24:45;;;;;;;2.83;1.10;;;30.60;73.70;;;;;;4971795;28;20215;-64
2021/06/10 06:27:12;;;;;;;3.13;1.10;;;31.70;67.90;;;;;;4972787;28;20594;-64
2021/06/10 06:29:40;;;;;;;1.15;1.05;;;32.90;61.20;;;;;;4971252;28;20666;-63
2021/06/10 06:32:07;;;;;;;1.23;1.13;;;34.40;56.60;;;;;;4971651;28;20598;-64
2021/06/10 06:34:34;;;;;;;1.13;1.10;;;36.10;52.10;;;;;;4975169;28;20207;-64
2021/06/10 06:37:00;;;;;;;1.00;1.00;;;38.00;47.30;;;;;;4991349;28;20694;-64
2021/06/10 06:39:28;;;;;;;0.90;0.90;;;39.90;44.20;;;;;;4989973;28;20227;-64
2021/06/10 06:41:54;;;;;;;1.05;1.05;;;41.70;40.40;;;;;;4991566;28;20254;-65
2021/06/10 06:44:21;;;;;;;1.20;1.20;;;43.40;38.00;;;;;;4988442;28;20199;-64
2021/06/10 06:46:47;;;;;;;3.05;1.48;;;44.90;34.90;;;;;;4971725;28;21130;-64
2021/06/10 06:49:14;;;;;;;1.40;1.40;;;46.40;32.70;;;;;;4988322;28;20202;-64
2021/06/10 06:51:40;;;;;;;1.58;1.50;;;47.70;31.10;;;;;;4973504;28;20697;-65
2021/06/10 06:54:07;;;;;;;2.15;2.05;;;49.10;29.20;;;;;;4969061;28;20586;-64
2021/06/10 06:56:35;;;;;;;1.70;1.60;;;50.30;28.00;;;;;;4973507;28;20277;-65
2021/06/10 06:59:01;;;;;;;4.57;1.85;;;51.40;27.30;;;;;;4969546;28;20639;-64
2021/06/10 07:01:27;;;;;;;2.22;2.00;;;52.50;26.30;;;;;;4975335;28;20226;-64
2021/06/10 07:03:54;;;;;;;1.75;1.67;;;53.50;25.60;;;;;;4970581;28;20431;-66
2021/06/10 07:06:21;;;;;;;2.50;2.30;;;54.10;24.90;;;;;;4974848;28;20188;-64
2021/06/10 07:08:47;;;;;;;2.05;1.95;;;54.60;24.20;;;;;;4980473;28;20321;-67
2021/06/10 07:11:14;;;;;;;2.15;2.05;;;54.90;23.50;;;;;;4948284;28;20672;-64
2021/06/10 07:13:41;;;;;;;2.53;2.42;;;55.10;23.20;;;;;;4978698;28;20195;-64
2021/06/10 07:16:08;;;;;;;2.33;2.22;;;54.90;23.00;;;;;;4966788;28;20218;-64
2021/06/10 07:18:35;;;;;;;2.40;2.30;;;54.10;22.80;;;;;;4967052;28;20208;-64
2021/06/10 07:21:01;;;;;;;2.38;2.28;;;52.10;23.20;;;;;;4954550;28;20195;-65
2021/06/10 07:23:28;;;;;;;2.13;2.03;;;49.70;23.90;;;;;;4962171;28;20210;-64
2021/06/10 07:25:55;;;;;;;3.30;2.20;;;47.40;25.10;;;;;;4965434;28;20208;-66
2021/06/10 07:28:22;;;;;;;2.20;2.10;;;45.30;26.10;;;;;;4972488;28;20658;-65
2021/06/10 07:30:50;;;;;;;2.13;2.03;;;43.60;26.70;;;;;;4969472;28;20232;-64
2021/06/10 07:33:16;;;;;;;1.90;1.80;;;42.10;27.00;;;;;;4953470;28;20290;-65
2021/06/10 07:35:43;;;;;;;1.80;1.70;;;40.80;27.70;;;;;;4975730;28;20806;-65
2021/06/10 07:38:10;;;;;;;1.80;1.70;;;39.90;28.40;;;;;;4971345;28;20312;-65
2021/06/10 07:40:38;;;;;;;1.77;1.77;;;38.80;28.90;;;;;;4968641;28;20283;-64
2021/06/10 07:43:06;;;;;;;1.90;1.42;;;38.00;29.20;;;;;;4968826;28;20231;-64
2021/06/10 07:45:33;;;;;;;1.55;1.52;;;37.20;29.60;;;;;;4975764;28;20462;-65
2021/06/10 07:48:01;;;;;;;3.80;1.58;;;36.60;30.20;;;;;;4959591;28;20216;-64
2021/06/10 07:50:28;;;;;;;1.58;1.45;;;35.90;30.60;;;;;;4967287;28;20200;-64
2021/06/10 07:52:54;;;;;;;1.48;1.38;;;35.30;31.30;;;;;;4971483;28;20807;-65
2021/06/10 07:55:22;;;;;;;2.67;1.98;;;34.90;32.10;;;;;;4972048;28;20204;-64
2021/06/10 07:57:50;;;;;;;2.80;1.35;;;34.50;32.40;;;;;;4970519;28;20200;-65
2021/06/10 08:00:18;;;;;;;2.83;1.63;;;34.10;33.00;;;;;;4969838;28;20642;-65
2021/06/10 08:02:45;;;;;;;1.63;1.45;;;33.80;33.20;;;;;;4969325;28;20196;-65
2021/06/10 08:05:14;;;;;;;2.45;1.73;;;33.70;33.50;;;;;;4974662;28;20613;-65
2021/06/10 08:07:43;;;;;;;1.50;1.40;;;33.50;33.60;;;;;;4970388;28;20714;-64
2021/06/10 08:10:11;;;;;;;3.47;2.05;;;33.20;34.00;;;;;;4958578;28;20560;-65
2021/06/10 08:12:37;;;;;;;2.15;1.70;;;32.90;34.40;;;;;;4974814;28;20200;-65
2021/06/10 08:15:05;;;;;;;2.05;1.60;;;32.60;34.80;;;;;;4977758;28;20292;-65
2021/06/10 08:17:35;;;;;;;4.88;1.92;;;32.40;35.20;;;;;;4952299;28;20247;-65
2021/06/10 08:20:03;;;;;;;3.58;2.05;;;32.20;35.60;;;;;;4954920;28;20258;-65
2021/06/10 08:22:31;;;;;;;6.38;2.08;;;32.00;35.90;;;;;;4971532;28;20205;-64
2021/06/10 08:24:57;;;;;;;2.47;1.55;;;31.80;36.20;;;;;;4966963;28;20534;-65
2021/06/10 08:27:27;;;;;;;3.55;2.47;;;31.70;36.60;;;;;;4967228;28;20222;-66
2021/06/10 08:29:56;;;;;;;7.97;2.70;;;31.70;36.80;;;;;;4966158;28;20204;-64
2021/06/10 08:32:25;;;;;;;6.13;1.90;;;31.50;36.90;;;;;;4967148;28;20294;-65
2021/06/10 08:34:52;;;;;;;4.55;1.90;;;31.40;37.20;;;;;;4965066;28;20279;-65
2021/06/10 08:37:18;;;;;;;1.95;1.85;;;31.40;38.00;;;;;;4969324;28;20718;-64
2021/06/10 08:39:46;;;;;;;3.20;2.08;;;31.40;37.30;;;;;;4950874;28;20242;-65
2021/06/10 08:42:15;;;;;;;5.10;1.90;;;31.50;37.40;;;;;;4974682;28;21187;-64
2021/06/10 08:44:43;;;;;;;1.75;1.65;;;31.60;37.50;;;;;;4953983;28;20204;-65
2021/06/10 08:47:12;;;;;;;7.22;2.35;;;31.60;37.50;;;;;;4962182;28;20442;-65
2021/06/10 08:49:44;;;;;;;2.10;1.80;;;31.80;37.70;;;;;;4965933;28;20223;-65
2021/06/10 08:52:12;;;;;;;2.83;1.65;;;31.90;37.50;;;;;;4968779;28;20692;-64
2021/06/10 08:54:38;;;;;;;3.90;1.50;;;32.00;37.70;;;;;;4967256;28;20204;-64
2021/06/10 08:57:08;;;;;;;70.03;19.25;;;32.00;37.60;;;;;;4951589;28;20607;-68
2021/06/10 08:59:35;;;;;;;81.00;25.77;;;31.90;38.40;;;;;;4971777;28;20192;-68
2021/06/10 09:02:01;;;;;;;85.00;25.33;;;31.80;39.00;;;;;;4970015;28;20204;-67
2021/06/10 09:04:28;;;;;;;58.75;20.38;;;31.70;39.40;;;;;;4951130;28;20256;-67
2021/06/10 09:06:55;;;;;;;45.38;17.20;;;31.70;39.50;;;;;;4973498;28;20612;-67
2021/06/10 09:09:33;;;;;;;31.95;12.77;;;31.60;39.80;;;;;;4974105;28;20208;-67
2021/06/10 09:12:04;;;;;;;14.93;7.53;;;31.50;39.70;;;;;;4956055;28;20626;-68
2021/06/10 09:14:52;;;;;;;27.02;7.60;;;31.30;39.40;;;;;;4950030;28;20267;-68
2021/06/10 09:17:30;;;;;;;35.25;11.25;;;31.00;39.80;;;;;;4951767;28;20801;-68
2021/06/10 09:19:57;;;;;;;28.05;10.07;;;31.00;40.60;;;;;;4975919;28;20291;-68
2021/06/10 09:22:27;;;;;;;20.75;9.32;;;30.90;40.70;;;;;;4947810;28;20207;-68
2021/06/10 09:25:06;;;;;;;16.17;6.82;;;30.80;41.60;;;;;;4968410;28;20330;-68
2021/06/10 09:27:33;;;;;;;17.75;6.45;;;30.60;40.90;;;;;;4974841;28;20702;-68
2021/06/10 09:30:01;;;;;;;10.65;4.63;;;30.50;41.10;;;;;;4970603;28;20734;-72
2021/06/10 09:32:30;;;;;;;8.63;3.90;;;30.30;40.70;;;;;;4975517;28;21034;-71
2021/06/10 09:34:58;;;;;;;9.20;3.67;;;30.00;40.80;;;;;;4951212;28;20299;-71
2021/06/10 09:37:33;;;;;;;8.30;3.60;;;29.80;41.20;;;;;;4953912;28;20232;-71
2021/06/10 09:40:01;;;;;;;7.30;3.35;;;29.60;41.20;;;;;;4972284;28;20650;-69
2021/06/10 09:42:30;;;;;;;6.93;3.17;;;29.30;41.50;;;;;;4960602;28;20211;-69
2021/06/10 09:44:59;;;;;;;3.85;2.22;;;29.10;41.80;;;;;;4972515;28;20223;-70
2021/06/10 09:47:31;;;;;;;5.65;2.80;;;29.00;42.00;;;;;;4962693;28;20221;-70
2021/06/10 09:50:12;;;;;;;3.53;2.42;;;28.80;42.30;;;;;;4978601;28;20224;-70
2021/06/10 09:52:45;;;;;;;5.72;2.90;;;29.00;42.70;;;;;;4972561;28;20213;-71
2021/06/10 09:55:26;;;;;;;4.43;2.80;;;29.10;42.90;;;;;;4960513;28;20204;-69
2021/06/10 09:57:56;;;;;;;4.45;2.30;;;29.20;42.80;;;;;;4955123;28;20258;-69
2021/06/10 10:00:27;;;;;;;6.90;2.75;;;29.10;42.90;;;;;;4974955;28;20201;-69
2021/06/10 10:02:54;;;;;;;4.00;2.50;;;29.00;43.30;;;;;;4953681;28;20267;-70
2021/06/10 10:05:25;;;;;;;7.20;2.50;;;28.80;43.50;;;;;;4971625;28;20197;-69
2021/06/10 10:07:52;;;;;;;6.25;2.30;;;28.70;43.70;;;;;;4969372;28;20255;-69
2021/06/10 10:10:20;;;;;;;3.03;1.98;;;28.50;44.20;;;;;;4954312;28;20271;-70
2021/06/10 10:12:49;;;;;;;5.60;2.30;;;28.30;44.90;;;;;;4952878;28;20203;-69
2021/06/10 10:15:16;;;;;;;4.93;2.28;;;28.10;45.40;;;;;;4974054;28;20288;-69
2021/06/10 10:17:45;;;;;;;3.38;1.73;;;28.00;45.80;;;;;;4971557;28;20226;-69
2021/06/10 10:20:15;;;;;;;4.70;2.13;;;27.90;46.00;;;;;;4977865;28;20633;-67
2021/06/10 10:22:42;;;;;;;5.95;2.13;;;28.00;46.40;;;;;;4948379;28;20212;-68
2021/06/10 10:25:10;;;;;;;3.42;2.00;;;28.10;46.70;;;;;;4968173;28;20204;-68
2021/06/10 10:27:38;;;;;;;1.67;1.58;;;28.30;46.80;;;;;;4961990;28;20227;-69
2021/06/10 10:30:06;;;;;;;2.85;2.30;;;28.40;46.90;;;;;;4970921;28;21584;-69
2021/06/10 10:32:35;;;;;;;2.85;2.20;;;28.50;47.10;;;;;;4974760;28;20732;-70
2021/06/10 10:35:32;;;;;;;2.50;2.00;;;28.50;46.70;;;;;;4974230;28;20227;-68
2021/06/10 10:38:11;;;;;;;3.60;2.50;;;28.60;46.70;;;;;;4968807;28;20304;-69
2021/06/10 10:40:40;;;;;;;2.78;2.30;;;28.80;47.40;;;;;;4973269;28;20205;-70
2021/06/10 10:43:12;;;;;;;4.53;2.30;;;28.80;46.40;;;;;;4956597;28;20563;-68
2021/06/10 10:45:43;;;;;;;2.15;2.00;;;28.70;46.50;;;;;;4968821;28;20691;-68
2021/06/10 10:48:12;;;;;;;5.05;2.80;;;28.50;46.60;;;;;;4971853;28;20231;-67
2021/06/10 10:50:40;;;;;;;3.55;1.90;;;28.40;46.90;;;;;;4971201;28;20230;-67
2021/06/10 10:53:14;;;;;;;2.22;2.03;;;28.30;47.10;;;;;;4970886;28;20607;-68
2021/06/10 10:55:41;;;;;;;2.63;2.17;;;28.40;47.00;;;;;;4978739;28;20295;-69
2021/06/10 10:58:10;;;;;;;2.75;2.13;;;28.50;47.10;;;;;;4978850;28;20279;-67
2021/06/10 11:00:51;;;;;;;8.57;1.90;;;28.60;47.10;;;;;;4964313;28;20209;-62
2021/06/10 11:03:23;;;;;;;3.95;1.65;;;28.80;46.90;;;;;;4972855;28;20200;-63
2021/06/10 11:05:51;;;;;;;6.70;1.90;;;28.90;46.60;;;;;;4977846;28;20211;-63
2021/06/10 11:08:23;;;;;;;3.67;1.50;;;28.80;46.30;;;;;;4979512;28;20224;-63
2021/06/10 11:11:03;;;;;;;3.95;1.60;;;28.70;46.30;;;;;;4969980;28;20228;-63
2021/06/10 11:13:32;;;;;;;4.95;1.80;;;28.40;46.20;;;;;;4973382;28;20204;-63
2021/06/10 11:16:04;;;;;;;1.55;1.45;;;28.30;46.60;;;;;;4966899;28;20587;-63
2021/06/10 11:18:48;;;;;;;2.40;1.30;;;28.20;46.80;;;;;;4979697;28;20204;-63
2021/06/10 11:21:50;;;;;;;3.38;1.48;;;28.10;46.80;;;;;;4971489;28;20185;-63
2021/06/10 11:24:20;;;;;;;1.48;1.38;;;28.10;46.40;;;;;;4967931;28;20618;-63
2021/06/10 11:26:50;;;;;;;8.73;2.05;;;28.10;46.50;;;;;;4981943;28;20273;-63
2021/06/10 11:29:17;;;;;;;2.90;1.58;;;28.00;46.90;;;;;;4974679;28;20302;-63
2021/06/10 11:31:44;;;;;;;6.07;1.60;;;27.90;47.30;;;;;;4972836;28;20294;-63
2021/06/10 11:34:30;;;;;;;4.18;1.80;;;27.90;47.70;;;;;;4966564;28;20231;-63
2021/06/10 11:36:58;;;;;;;8.45;2.03;;;27.90;48.00;;;;;;4966892;28;20236;-62
2021/06/10 11:39:31;;;;;;;3.88;1.80;;;27.90;48.70;;;;;;4967483;28;20461;-63
2021/06/10 11:42:07;;;;;;;4.30;1.63;;;27.90;49.20;;;;;;4973233;28;20201;-62
2021/06/10 11:44:44;;;;;;;3.17;1.80;;;27.90;49.30;;;;;;4965517;28;20716;-64
2021/06/10 11:47:43;;;;;;;15.27;1.80;;;28.10;49.30;;;;;;4960336;28;20205;-63
2021/06/10 11:50:29;;;;;;;10.25;2.70;;;29.00;48.40;;;;;;4895201;29;20631;-62
2021/06/10 11:52:59;;;;;;;9.20;2.00;;;29.60;47.20;;;;;;4892410;29;20219;-63
2021/06/10 11:55:29;;;;;;;3.72;1.67;;;29.40;47.00;;;;;;4889166;29;20233;-62
2021/06/10 11:57:59;;;;;;;2.70;1.88;;;29.10;47.60;;;;;;4893241;29;20603;-63
2021/06/10 12:00:31;;;;;;;8.35;1.80;;;28.80;48.00;;;;;;4887121;29;20211;-63
2021/06/10 12:02:59;;;;;;;2.13;1.27;;;28.50;48.10;;;;;;4883480;29;20241;-64
2021/06/10 12:05:27;;;;;;;3.83;1.50;;;28.40;48.20;;;;;;4888344;29;20223;-64
2021/06/10 12:08:09;;;;;;;11.65;1.80;;;28.60;48.10;;;;;;4895222;29;20262;-65
2021/06/10 12:10:35;;;;;;;11.88;1.88;;;29.00;47.80;;;;;;4891263;29;20213;-64
2021/06/10 12:13:03;;;;;;;3.42;1.83;;;29.30;47.30;;;;;;4884595;29;20214;-64
2021/06/10 12:15:44;;;;;;;8.45;2.08;;;29.30;47.20;;;;;;4884941;29;20284;-63
2021/06/10 12:18:13;;;;;;;5.22;2.00;;;29.30;47.40;;;;;;4892106;29;20220;-65
2021/06/10 12:20:42;;;;;;;5.38;2.17;;;29.30;47.40;;;;;;4892931;29;20211;-64
2021/06/10 12:23:17;;;;;;;7.38;2.25;;;29.30;47.00;;;;;;4896238;28;20212;-64
2021/06/10 12:25:55;;;;;;;7.00;3.20;;;29.10;46.60;;;;;;4967419;28;20567;-64
2021/06/10 12:28:35;;;;;;;9.98;2.92;;;29.10;47.10;;;;;;4947051;28;20228;-63
2021/06/10 12:31:08;;;;;;;11.52;2.90;;;29.20;47.20;;;;;;4972066;28;20200;-63
2021/06/10 12:33:36;;;;;;;6.60;2.95;;;29.40;47.10;;;;;;4965371;28;20208;-68
2021/06/10 12:36:05;;;;;;;8.07;2.63;;;29.30;47.10;;;;;;4954253;28;20620;-69
2021/06/10 12:38:35;;;;;;;5.13;1.90;;;29.10;47.40;;;;;;4963377;28;20232;-68
2021/06/10 12:41:22;;;;;;;13.57;2.40;;;28.70;48.40;;;;;;4976071;28;20259;-68
2021/06/10 12:43:51;;;;;;;8.75;1.90;;;28.40;48.40;;;;;;4963529;28;20208;-68
2021/06/10 12:46:18;;;;;;;9.13;2.10;;;28.10;49.00;;;;;;4969620;28;20228;-69
2021/06/10 12:48:55;;;;;;;4.57;1.70;;;27.80;49.30;;;;;;4954915;28;20227;-69
2021/06/10 12:51:24;;;;;;;4.93;1.70;;;27.50;49.80;;;;;;4979995;28;20203;-68
2021/06/10 12:53:58;;;;;;;4.85;1.65;;;27.20;50.10;;;;;;4970128;28;20212;-67